sensor_id;sensor_type;location;lat;lon;timestamp;pressure;altitude;pressure_sealevel;temperature;humidity
75617;BME280;64200;55.426;37.758;2023-02-08T00:02:48;101813.38;;;-4.52;58.36
75617;BME280;64200;55.426;37.758;2023-02-08T00:07:48;101803.03;;;-4.64;58.57
75617;BME280;64200;55.426;37.758;2023-02-08T00:12:49;101813.47;;;-4.57;58.69
75617;BME280;64200;55.426;37.758;2023-02-08T00:17:51;101800.13;;;-4.68;58.59
75617;BME280;64200;55.426;37.758;2023-02-08T00:22:51;101811.69;;;-4.62;58.38
75617;BME280;64200;55.426;37.758;2023-02-08T00:27:52;101796.50;;;-4.63;58.83
75617;BME280;64200;55.426;37.758;2023-02-08T00:32:52;101806.00;;;-4.52;58.25
75617;BME280;64200;55.426;37.758;2023-02-08T00:37:53;101799.75;;;-4.52;58.21
75617;BME280;64200;55.426;37.758;2023-02-08T00:42:53;101795.66;;;-4.64;58.47
75617;BME280;64200;55.426;37.758;2023-02-08T00:47:54;101801.72;;;-4.44;58.27
75617;BME280;64200;55.426;37.758;2023-02-08T00:52:54;101796.56;;;-4.54;58.67
75617;BME280;64200;55.426;37.758;2023-02-08T00:57:55;101793.94;;;-4.60;58.26
75617;BME280;64200;55.426;37.758;2023-02-08T01:02:55;101790.78;;;-4.53;58.73
75617;BME280;64200;55.426;37.758;2023-02-08T01:07:56;101781.00;;;-4.77;58.94
75617;BME280;64200;55.426;37.758;2023-02-08T01:12:57;101766.25;;;-4.76;58.48
75617;BME280;64200;55.426;37.758;2023-02-08T01:17:57;101775.66;;;-4.82;58.54
75617;BME280;64200;55.426;37.758;2023-02-08T01:22:58;101777.59;;;-4.82;58.93
75617;BME280;64200;55.426;37.758;2023-02-08T01:27:58;101769.22;;;-5.08;59.15
75617;BME280;64200;55.426;37.758;2023-02-08T01:32:59;101784.00;;;-5.01;59.52
75617;BME280;64200;55.426;37.758;2023-02-08T01:38:00;101778.53;;;-4.87;59.20
75617;BME280;64200;55.426;37.758;2023-02-08T01:43:02;101785.59;;;-4.63;59.38
75617;BME280;64200;55.426;37.758;2023-02-08T01:48:11;101768.69;;;-4.74;58.89
75617;BME280;64200;55.426;37.758;2023-02-08T01:53:14;101772.78;;;-4.63;59.13
75617;BME280;64200;55.426;37.758;2023-02-08T01:58:15;101775.56;;;-4.54;58.66
75617;BME280;64200;55.426;37.758;2023-02-08T02:03:19;101774.06;;;-4.83;59.15
75617;BME280;64200;55.426;37.758;2023-02-08T02:08:21;101749.69;;;-4.88;59.46
75617;BME280;64200;55.426;37.758;2023-02-08T02:13:24;101766.84;;;-4.65;59.25
75617;BME280;64200;55.426;37.758;2023-02-08T02:18:28;101773.63;;;-4.99;60.06
75617;BME280;64200;55.426;37.758;2023-02-08T02:34:39;101785.38;;;-5.12;60.57
75617;BME280;64200;55.426;37.758;2023-02-08T02:40:07;101795.25;;;-5.16;60.58
75617;BME280;64200;55.426;37.758;2023-02-08T02:45:41;101789.06;;;-5.08;60.48
75617;BME280;64200;55.426;37.758;2023-02-08T02:50:48;101785.28;;;-5.35;60.65
75617;BME280;64200;55.426;37.758;2023-02-08T02:55:58;101790.53;;;-5.38;61.46
75617;BME280;64200;55.426;37.758;2023-02-08T03:01:00;101778.03;;;-5.25;61.21
75617;BME280;64200;55.426;37.758;2023-02-08T03:06:02;101775.53;;;-5.36;60.76
75617;BME280;64200;55.426;37.758;2023-02-08T03:11:17;101777.66;;;-5.33;61.17
75617;BME280;64200;55.426;37.758;2023-02-08T03:21:42;101793.53;;;-5.12;59.55
75617;BME280;64200;55.426;37.758;2023-02-08T03:32:34;101798.53;;;-4.69;59.06
75617;BME280;64200;55.426;37.758;2023-02-08T03:42:41;101782.34;;;-4.88;59.07
75617;BME280;64200;55.426;37.758;2023-02-08T03:47:43;101776.22;;;-4.71;58.96
75617;BME280;64200;55.426;37.758;2023-02-08T03:52:48;101775.56;;;-4.54;58.83
75617;BME280;64200;55.426;37.758;2023-02-08T03:58:51;101768.50;;;-4.55;58.61
75617;BME280;64200;55.426;37.758;2023-02-08T04:03:32;101765.41;;;-4.62;59.02
75617;BME280;64200;55.426;37.758;2023-02-08T04:08:34;101769.13;;;-4.81;60.02
75617;BME280;64200;55.426;37.758;2023-02-08T04:13:34;101772.03;;;-4.77;60.15
75617;BME280;64200;55.426;37.758;2023-02-08T04:18:35;101776.28;;;-4.85;60.21
75617;BME280;64200;55.426;37.758;2023-02-08T04:23:35;101768.13;;;-4.85;60.48
75617;BME280;64200;55.426;37.758;2023-02-08T04:28:35;101761.53;;;-5.06;61.10
75617;BME280;64200;55.426;37.758;2023-02-08T04:33:36;101753.88;;;-5.04;61.48
75617;BME280;64200;55.426;37.758;2023-02-08T04:38:36;101741.47;;;-4.97;61.39
75617;BME280;64200;55.426;37.758;2023-02-08T04:43:37;101751.66;;;-4.80;61.33
75617;BME280;64200;55.426;37.758;2023-02-08T04:48:37;101742.53;;;-4.84;61.60
75617;BME280;64200;55.426;37.758;2023-02-08T04:53:40;101741.06;;;-5.04;61.94
75617;BME280;64200;55.426;37.758;2023-02-08T04:58:41;101737.66;;;-5.09;62.13
75617;BME280;64200;55.426;37.758;2023-02-08T05:03:42;101718.28;;;-5.31;62.09
75617;BME280;64200;55.426;37.758;2023-02-08T05:08:42;101728.25;;;-5.03;62.11
75617;BME280;64200;55.426;37.758;2023-02-08T05:13:44;101721.41;;;-5.01;61.63
75617;BME280;64200;55.426;37.758;2023-02-08T05:18:44;101728.66;;;-4.73;60.59
75617;BME280;64200;55.426;37.758;2023-02-08T05:23:45;101734.47;;;-4.66;60.44
75617;BME280;64200;55.426;37.758;2023-02-08T05:28:45;101739.03;;;-4.53;60.22
75617;BME280;64200;55.426;37.758;2023-02-08T05:33:47;101729.06;;;-4.57;59.91
75617;BME280;64200;55.426;37.758;2023-02-08T05:38:48;101732.03;;;-4.45;59.99
75617;BME280;64200;55.426;37.758;2023-02-08T05:43:49;101715.44;;;-4.57;60.07
75617;BME280;64200;55.426;37.758;2023-02-08T05:48:50;101724.03;;;-4.42;60.14
75617;BME280;64200;55.426;37.758;2023-02-08T05:53:50;101718.34;;;-4.54;60.28
75617;BME280;64200;55.426;37.758;2023-02-08T05:58:50;101727.81;;;-4.20;60.16
75617;BME280;64200;55.426;37.758;2023-02-08T06:03:51;101709.69;;;-4.25;59.88
75617;BME280;64200;55.426;37.758;2023-02-08T06:08:52;101704.22;;;-4.33;60.15
75617;BME280;64200;55.426;37.758;2023-02-08T06:13:52;101701.22;;;-4.23;59.98
75617;BME280;64200;55.426;37.758;2023-02-08T06:18:53;101715.75;;;-3.88;59.68
75617;BME280;64200;55.426;37.758;2023-02-08T06:23:53;101706.28;;;-3.90;59.18
75617;BME280;64200;55.426;37.758;2023-02-08T06:28:53;101708.72;;;-3.80;59.01
75617;BME280;64200;55.426;37.758;2023-02-08T06:33:54;101705.06;;;-3.66;58.90
75617;BME280;64200;55.426;37.758;2023-02-08T06:38:54;101702.00;;;-3.74;58.83
75617;BME280;64200;55.426;37.758;2023-02-08T06:43:55;101700.06;;;-3.73;58.70
75617;BME280;64200;55.426;37.758;2023-02-08T06:48:58;101704.25;;;-3.76;58.94
75617;BME280;64200;55.426;37.758;2023-02-08T06:53:59;101713.38;;;-3.72;58.24
75617;BME280;64200;55.426;37.758;2023-02-08T06:59:00;101699.25;;;-3.74;58.98
75617;BME280;64200;55.426;37.758;2023-02-08T07:04:00;101686.09;;;-3.72;58.73
75617;BME280;64200;55.426;37.758;2023-02-08T07:09:00;101705.53;;;-3.64;58.70
75617;BME280;64200;55.426;37.758;2023-02-08T07:14:03;101674.91;;;-3.70;58.89
75617;BME280;64200;55.426;37.758;2023-02-08T07:19:04;101701.06;;;-3.60;58.50
75617;BME280;64200;55.426;37.758;2023-02-08T07:24:05;101690.00;;;-3.55;58.84
75617;BME280;64200;55.426;37.758;2023-02-08T07:29:05;101678.75;;;-3.62;58.85
75617;BME280;64200;55.426;37.758;2023-02-08T07:34:06;101671.16;;;-3.92;60.10
75617;BME280;64200;55.426;37.758;2023-02-08T07:39:06;101671.66;;;-3.81;60.41
75617;BME280;64200;55.426;37.758;2023-02-08T07:44:07;101679.06;;;-3.73;59.90
75617;BME280;64200;55.426;37.758;2023-02-08T07:49:07;101670.09;;;-3.29;59.17
75617;BME280;64200;55.426;37.758;2023-02-08T07:54:08;101649.03;;;-3.03;58.19
75617;BME280;64200;55.426;37.758;2023-02-08T07:59:09;101658.72;;;-3.23;58.94
75617;BME280;64200;55.426;37.758;2023-02-08T08:04:10;101657.91;;;-3.32;58.98
75617;BME280;64200;55.426;37.758;2023-02-08T08:09:11;101659.19;;;-3.38;59.52
75617;BME280;64200;55.426;37.758;2023-02-08T08:14:11;101644.72;;;-3.12;59.46
75617;BME280;64200;55.426;37.758;2023-02-08T08:19:12;101641.28;;;-2.83;58.52
75617;BME280;64200;55.426;37.758;2023-02-08T08:24:13;101632.31;;;-2.84;57.95
75617;BME280;64200;55.426;37.758;2023-02-08T08:29:14;101622.97;;;-2.74;58.15
75617;BME280;64200;55.426;37.758;2023-02-08T08:34:14;101641.44;;;-2.79;57.51
75617;BME280;64200;55.426;37.758;2023-02-08T08:39:15;101632.44;;;-2.80;58.38
75617;BME280;64200;55.426;37.758;2023-02-08T08:44:15;101626.91;;;-2.62;57.65
75617;BME280;64200;55.426;37.758;2023-02-08T08:49:16;101602.31;;;-2.54;57.53
75617;BME280;64200;55.426;37.758;2023-02-08T08:54:17;101592.66;;;-2.51;57.29
75617;BME280;64200;55.426;37.758;2023-02-08T08:59:18;101592.56;;;-2.63;57.83
75617;BME280;64200;55.426;37.758;2023-02-08T09:04:19;101595.47;;;-2.77;57.39
75617;BME280;64200;55.426;37.758;2023-02-08T09:09:22;101616.88;;;-2.79;58.02
75617;BME280;64200;55.426;37.758;2023-02-08T09:14:22;101618.03;;;-2.98;58.40
75617;BME280;64200;55.426;37.758;2023-02-08T09:19:23;101596.81;;;-2.92;59.04
75617;BME280;64200;55.426;37.758;2023-02-08T09:24:23;101598.22;;;-2.77;58.20
75617;BME280;64200;55.426;37.758;2023-02-08T09:29:24;101577.03;;;-2.80;58.86
75617;BME280;64200;55.426;37.758;2023-02-08T09:34:26;101590.94;;;-2.65;59.07
75617;BME280;64200;55.426;37.758;2023-02-08T09:39:27;101564.41;;;-2.64;58.61
75617;BME280;64200;55.426;37.758;2023-02-08T10:00:40;101568.50;;;-2.19;58.31
75617;BME280;64200;55.426;37.758;2023-02-08T10:05:41;101563.41;;;-2.00;57.83
75617;BME280;64200;55.426;37.758;2023-02-08T10:11:03;101552.09;;;-1.89;57.72
75617;BME280;64200;55.426;37.758;2023-02-08T10:16:15;101549.25;;;-2.02;57.39
75617;BME280;64200;55.426;37.758;2023-02-08T10:22:02;101544.91;;;-2.24;58.49
75617;BME280;64200;55.426;37.758;2023-02-08T10:37:49;101516.91;;;-2.21;58.92
75617;BME280;64200;55.426;37.758;2023-02-08T10:43:21;101518.50;;;-2.20;58.04
75617;BME280;64200;55.426;37.758;2023-02-08T10:53:47;101506.44;;;-2.19;58.07
75617;BME280;64200;55.426;37.758;2023-02-08T10:58:48;101506.00;;;-1.66;57.84
75617;BME280;64200;55.426;37.758;2023-02-08T11:04:05;101497.63;;;-1.49;56.23
75617;BME280;64200;55.426;37.758;2023-02-08T11:09:06;101484.97;;;-0.30;54.74
75617;BME280;64200;55.426;37.758;2023-02-08T11:14:15;101470.41;;;1.50;51.73
75617;BME280;64200;55.426;37.758;2023-02-08T11:19:32;101474.81;;;6.10;44.67
75617;BME280;64200;55.426;37.758;2023-02-08T11:24:38;101472.13;;;6.46;40.31
75617;BME280;64200;55.426;37.758;2023-02-08T11:29:40;101489.63;;;6.83;37.52
75617;BME280;64200;55.426;37.758;2023-02-08T11:34:41;101486.69;;;6.22;39.06
75617;BME280;64200;55.426;37.758;2023-02-08T11:39:44;101485.13;;;3.82;39.89
75617;BME280;64200;55.426;37.758;2023-02-08T11:44:49;101459.00;;;1.68;43.62
75617;BME280;64200;55.426;37.758;2023-02-08T11:49:56;101467.56;;;0.19;47.71
75617;BME280;64200;55.426;37.758;2023-02-08T12:00:21;101465.69;;;-0.33;50.47
75617;BME280;64200;55.426;37.758;2023-02-08T12:05:47;101459.56;;;-0.55;51.51
75617;BME280;64200;55.426;37.758;2023-02-08T12:11:08;101436.66;;;-0.75;51.77
75617;BME280;64200;55.426;37.758;2023-02-08T12:32:56;101402.19;;;-1.13;53.61
75617;BME280;64200;55.426;37.758;2023-02-08T12:38:13;101413.03;;;-1.29;53.41
75617;BME280;64200;55.426;37.758;2023-02-08T13:00:21;101394.16;;;0.16;52.35
75617;BME280;64200;55.426;37.758;2023-02-08T13:05:27;101400.81;;;-0.13;52.03
75617;BME280;64200;55.426;37.758;2023-02-08T13:10:35;101387.78;;;-0.04;51.83
75617;BME280;64200;55.426;37.758;2023-02-08T13:15:45;101355.13;;;0.07;51.20
75617;BME280;64200;55.426;37.758;2023-02-08T13:20:54;101366.69;;;-0.44;52.29
75617;BME280;64200;55.426;37.758;2023-02-08T13:25:59;101356.41;;;-0.88;53.13
75617;BME280;64200;55.426;37.758;2023-02-08T13:31:06;101348.13;;;-1.16;54.68
75617;BME280;64200;55.426;37.758;2023-02-08T13:36:23;101350.53;;;-1.27;55.28
75617;BME280;64200;55.426;37.758;2023-02-08T13:41:26;101360.91;;;-1.20;55.18
75617;BME280;64200;55.426;37.758;2023-02-08T13:46:35;101347.91;;;-1.24;55.68
75617;BME280;64200;55.426;37.758;2023-02-08T13:51:50;101341.38;;;-1.56;55.09
75617;BME280;64200;55.426;37.758;2023-02-08T13:56:52;101357.22;;;-1.62;55.85
75617;BME280;64200;55.426;37.758;2023-02-08T14:07:32;101349.25;;;-1.67;56.71
75617;BME280;64200;55.426;37.758;2023-02-08T14:17:47;101343.66;;;-1.70;57.38
75617;BME280;64200;55.426;37.758;2023-02-08T14:22:51;101334.19;;;-1.85;57.26
75617;BME280;64200;55.426;37.758;2023-02-08T14:53:29;101335.25;;;-2.23;58.50
75617;BME280;64200;55.426;37.758;2023-02-08T14:58:39;101322.69;;;-2.24;58.61
75617;BME280;64200;55.426;37.758;2023-02-08T15:03:44;101333.66;;;-2.12;57.96
75617;BME280;64200;55.426;37.758;2023-02-08T15:08:51;101343.81;;;-2.13;57.95
75617;BME280;64200;55.426;37.758;2023-02-08T15:13:55;101309.47;;;-2.35;58.50
75617;BME280;64200;55.426;37.758;2023-02-08T15:18:56;101340.56;;;-2.27;58.50
75617;BME280;64200;55.426;37.758;2023-02-08T15:29:01;101333.63;;;-2.24;58.31
75617;BME280;64200;55.426;37.758;2023-02-08T15:34:02;101325.25;;;-2.40;58.94
75617;BME280;64200;55.426;37.758;2023-02-08T15:44:28;101328.56;;;-2.47;58.55
75617;BME280;64200;55.426;37.758;2023-02-08T15:49:44;101324.56;;;-2.50;59.34
75617;BME280;64200;55.426;37.758;2023-02-08T15:54:46;101328.34;;;-2.42;59.02
75617;BME280;64200;55.426;37.758;2023-02-08T15:59:48;101326.38;;;-2.41;59.40
75617;BME280;64200;55.426;37.758;2023-02-08T16:04:48;101327.81;;;-2.35;58.92
75617;BME280;64200;55.426;37.758;2023-02-08T16:09:49;101315.78;;;-2.43;59.16
75617;BME280;64200;55.426;37.758;2023-02-08T16:14:50;101296.66;;;-2.43;59.09
75617;BME280;64200;55.426;37.758;2023-02-08T16:19:51;101300.31;;;-2.39;58.98
75617;BME280;64200;55.426;37.758;2023-02-08T16:24:51;101309.56;;;-2.31;59.31
75617;BME280;64200;55.426;37.758;2023-02-08T16:29:52;101295.44;;;-2.45;59.85
75617;BME280;64200;55.426;37.758;2023-02-08T16:34:53;101293.16;;;-2.43;59.85
75617;BME280;64200;55.426;37.758;2023-02-08T16:39:59;101290.50;;;-2.52;59.62
75617;BME280;64200;55.426;37.758;2023-02-08T16:50:27;101283.22;;;-2.48;59.69
75617;BME280;64200;55.426;37.758;2023-02-08T16:55:30;101294.19;;;-2.36;60.03
75617;BME280;64200;55.426;37.758;2023-02-08T17:00:33;101291.59;;;-2.32;59.78
75617;BME280;64200;55.426;37.758;2023-02-08T17:05:36;101283.91;;;-2.51;60.32
75617;BME280;64200;55.426;37.758;2023-02-08T17:10:38;101304.94;;;-2.31;59.89
75617;BME280;64200;55.426;37.758;2023-02-08T17:15:41;101294.44;;;-2.28;60.23
75617;BME280;64200;55.426;37.758;2023-02-08T17:20:42;101276.22;;;-2.37;59.92
75617;BME280;64200;55.426;37.758;2023-02-08T17:25:43;101288.38;;;-2.34;60.06
75617;BME280;64200;55.426;37.758;2023-02-08T17:30:44;101291.00;;;-2.38;60.20
75617;BME280;64200;55.426;37.758;2023-02-08T17:35:50;101308.34;;;-2.34;60.80
75617;BME280;64200;55.426;37.758;2023-02-08T17:40:51;101295.72;;;-2.26;60.75
75617;BME280;64200;55.426;37.758;2023-02-08T17:45:51;101277.94;;;-2.20;60.54
75617;BME280;64200;55.426;37.758;2023-02-08T17:50:51;101286.84;;;-2.10;60.06
75617;BME280;64200;55.426;37.758;2023-02-08T17:55:52;101276.59;;;-2.14;60.63
75617;BME280;64200;55.426;37.758;2023-02-08T18:00:53;101273.66;;;-2.08;60.76
75617;BME280;64200;55.426;37.758;2023-02-08T18:05:56;101278.44;;;-2.05;61.06
75617;BME280;64200;55.426;37.758;2023-02-08T18:11:06;101271.38;;;-2.06;60.64
75617;BME280;64200;55.426;37.758;2023-02-08T18:16:14;101264.31;;;-1.95;61.33
75617;BME280;64200;55.426;37.758;2023-02-08T18:21:18;101265.34;;;-1.87;61.11
75617;BME280;64200;55.426;37.758;2023-02-08T18:26:22;101259.63;;;-1.82;61.07
75617;BME280;64200;55.426;37.758;2023-02-08T18:31:22;101239.47;;;-1.90;60.77
75617;BME280;64200;55.426;37.758;2023-02-08T18:36:24;101252.69;;;-1.80;60.89
75617;BME280;64200;55.426;37.758;2023-02-08T18:41:26;101248.84;;;-1.91;60.68
75617;BME280;64200;55.426;37.758;2023-02-08T18:46:27;101226.47;;;-1.93;60.60
75617;BME280;64200;55.426;37.758;2023-02-08T18:51:28;101226.94;;;-1.79;61.14
75617;BME280;64200;55.426;37.758;2023-02-08T18:56:29;101217.38;;;-1.72;60.95
75617;BME280;64200;55.426;37.758;2023-02-08T19:01:31;101221.34;;;-1.70;60.97
75617;BME280;64200;55.426;37.758;2023-02-08T19:06:34;101221.34;;;-1.57;60.38
75617;BME280;64200;55.426;37.758;2023-02-08T19:11:37;101218.81;;;-1.50;60.31
75617;BME280;64200;55.426;37.758;2023-02-08T19:16:38;101217.81;;;-1.58;60.57
75617;BME280;64200;55.426;37.758;2023-02-08T19:21:39;101213.38;;;-1.63;61.11
75617;BME280;64200;55.426;37.758;2023-02-08T19:26:40;101211.88;;;-1.60;60.71
75617;BME280;64200;55.426;37.758;2023-02-08T19:31:44;101209.34;;;-1.53;60.54
75617;BME280;64200;55.426;37.758;2023-02-08T19:36:48;101207.44;;;-1.52;61.37
75617;BME280;64200;55.426;37.758;2023-02-08T19:41:49;101210.59;;;-1.50;61.24
75617;BME280;64200;55.426;37.758;2023-02-08T19:46:53;101206.75;;;-1.62;60.96
75617;BME280;64200;55.426;37.758;2023-02-08T19:51:55;101197.31;;;-1.77;61.43
75617;BME280;64200;55.426;37.758;2023-02-08T19:56:58;101201.13;;;-1.53;61.92
75617;BME280;64200;55.426;37.758;2023-02-08T20:02:02;101181.63;;;-1.51;61.52
75617;BME280;64200;55.426;37.758;2023-02-08T20:07:06;101152.06;;;-1.74;61.36
75617;BME280;64200;55.426;37.758;2023-02-08T20:12:07;101147.59;;;-1.66;61.69
75617;BME280;64200;55.426;37.758;2023-02-08T20:17:07;101176.66;;;-1.62;62.18
75617;BME280;64200;55.426;37.758;2023-02-08T20:22:11;101174.38;;;-1.60;63.14
75617;BME280;64200;55.426;37.758;2023-02-08T20:27:14;101171.53;;;-1.63;63.21
75617;BME280;64200;55.426;37.758;2023-02-08T20:32:14;101136.59;;;-1.95;64.40
75617;BME280;64200;55.426;37.758;2023-02-08T20:37:15;101163.88;;;-1.57;64.40
75617;BME280;64200;55.426;37.758;2023-02-08T20:42:19;101161.38;;;-1.75;64.42
75617;BME280;64200;55.426;37.758;2023-02-08T20:47:20;101147.97;;;-1.80;65.64
75617;BME280;64200;55.426;37.758;2023-02-08T20:52:21;101142.84;;;-1.82;65.02
75617;BME280;64200;55.426;37.758;2023-02-08T20:57:21;101160.25;;;-1.74;65.26
75617;BME280;64200;55.426;37.758;2023-02-08T21:02:22;101153.75;;;-1.69;65.12
75617;BME280;64200;55.426;37.758;2023-02-08T21:07:23;101159.56;;;-1.71;66.06
75617;BME280;64200;55.426;37.758;2023-02-08T21:12:24;101151.63;;;-1.76;66.14
75617;BME280;64200;55.426;37.758;2023-02-08T21:17:26;101142.72;;;-1.73;65.84
75617;BME280;64200;55.426;37.758;2023-02-08T21:22:26;101142.81;;;-1.69;66.23
75617;BME280;64200;55.426;37.758;2023-02-08T21:27:27;101130.19;;;-1.86;66.51
75617;BME280;64200;55.426;37.758;2023-02-08T21:32:28;101137.13;;;-1.77;66.43
75617;BME280;64200;55.426;37.758;2023-02-08T21:37:32;101153.53;;;-1.64;66.70
75617;BME280;64200;55.426;37.758;2023-02-08T21:42:32;101143.31;;;-1.51;66.47
75617;BME280;64200;55.426;37.758;2023-02-08T21:47:33;101129.91;;;-1.56;66.11
75617;BME280;64200;55.426;37.758;2023-02-08T21:52:34;101121.47;;;-1.64;66.27
75617;BME280;64200;55.426;37.758;2023-02-08T21:57:53;101129.59;;;-1.67;66.34
75617;BME280;64200;55.426;37.758;2023-02-08T22:02:53;101138.47;;;-1.58;67.34
75617;BME280;64200;55.426;37.758;2023-02-08T22:07:55;101140.25;;;-1.50;66.52
75617;BME280;64200;55.426;37.758;2023-02-08T22:12:57;101158.13;;;-1.40;67.09
75617;BME280;64200;55.426;37.758;2023-02-08T22:18:00;101148.88;;;-1.35;66.52
75617;BME280;64200;55.426;37.758;2023-02-08T22:23:01;101155.47;;;-1.36;65.92
75617;BME280;64200;55.426;37.758;2023-02-08T22:28:02;101144.31;;;-1.31;66.70
75617;BME280;64200;55.426;37.758;2023-02-08T22:33:03;101160.25;;;-1.33;66.04
75617;BME280;64200;55.426;37.758;2023-02-08T22:38:03;101135.44;;;-1.40;66.00
75617;BME280;64200;55.426;37.758;2023-02-08T22:43:04;101146.03;;;-1.39;66.62
75617;BME280;64200;55.426;37.758;2023-02-08T22:48:04;101123.94;;;-1.46;66.29
75617;BME280;64200;55.426;37.758;2023-02-08T22:53:05;101129.81;;;-1.32;66.36
75617;BME280;64200;55.426;37.758;2023-02-08T22:58:05;101115.47;;;-1.41;65.87
75617;BME280;64200;55.426;37.758;2023-02-08T23:03:06;101127.66;;;-1.38;66.52
75617;BME280;64200;55.426;37.758;2023-02-08T23:08:06;101120.03;;;-1.45;66.39
75617;BME280;64200;55.426;37.758;2023-02-08T23:13:08;101126.88;;;-1.39;66.75
75617;BME280;64200;55.426;37.758;2023-02-08T23:18:09;101133.44;;;-1.28;67.11
75617;BME280;64200;55.426;37.758;2023-02-08T23:23:12;101114.63;;;-1.29;66.14
75617;BME280;64200;55.426;37.758;2023-02-08T23:28:12;101122.25;;;-1.22;66.70
75617;BME280;64200;55.426;37.758;2023-02-08T23:33:13;101116.63;;;-1.14;66.64
75617;BME280;64200;55.426;37.758;2023-02-08T23:38:13;101123.59;;;-1.16;66.26
75617;BME280;64200;55.426;37.758;2023-02-08T23:43:14;101132.00;;;-1.09;65.85
75617;BME280;64200;55.426;37.758;2023-02-08T23:48:14;101143.16;;;-1.02;65.91
75617;BME280;64200;55.426;37.758;2023-02-08T23:53:15;101140.16;;;-0.97;66.02
75617;BME280;64200;55.426;37.758;2023-02-08T23:58:15;101131.59;;;-0.95;66.30
